sensor_id;sensor_type;location;lat;lon;timestamp;pressure;altitude;pressure_sealevel;temperature;humidity
5814;BME280;2933;52.302;8.134;2023-02-28T00:03:47;102021.06;;;-3.03;100.00
5814;BME280;2933;52.302;8.134;2023-02-28T00:08:49;102022.78;;;-3.02;100.00
5814;BME280;2933;52.302;8.134;2023-02-28T00:13:50;102027.97;;;-3.01;100.00
5814;BME280;2933;52.302;8.134;2023-02-28T00:18:53;102022.78;;;-3.04;100.00
5814;BME280;2933;52.302;8.134;2023-02-28T00:23:55;102006.69;;;-2.98;100.00
5814;BME280;2933;52.302;8.134;2023-02-28T00:28:56;102022.78;;;-3.04;100.00
5814;BME280;2933;52.302;8.134;2023-02-28T00:33:59;102021.03;;;-3.05;100.00
5814;BME280;2933;52.302;8.134;2023-02-28T00:39:01;102012.56;;;-3.44;100.00
5814;BME280;2933;52.302;8.134;2023-02-28T00:44:02;102018.63;;;-3.40;100.00
5814;BME280;2933;52.302;8.134;2023-02-28T00:49:05;102012.34;;;-3.54;100.00
5814;BME280;2933;52.302;8.134;2023-02-28T00:54:07;102008.31;;;-3.43;100.00
5814;BME280;2933;52.302;8.134;2023-02-28T00:59:09;102011.78;;;-3.41;100.00
5814;BME280;2933;52.302;8.134;2023-02-28T01:04:12;102010.00;;;-3.45;100.00
5814;BME280;2933;52.302;8.134;2023-02-28T01:09:14;102012.47;;;-3.48;100.00
5814;BME280;2933;52.302;8.134;2023-02-28T01:14:17;102013.31;;;-3.49;100.00
5814;BME280;2933;52.302;8.134;2023-02-28T01:19:20;102025.56;;;-3.34;100.00
5814;BME280;2933;52.302;8.134;2023-02-28T01:24:22;102007.53;;;-3.41;100.00
5814;BME280;2933;52.302;8.134;2023-02-28T01:29:23;102010.66;;;-3.54;100.00
5814;BME280;2933;52.302;8.134;2023-02-28T01:34:27;102016.66;;;-3.52;100.00
5814;BME280;2933;52.302;8.134;2023-02-28T01:39:28;102015.66;;;-3.59;100.00
5814;BME280;2933;52.302;8.134;2023-02-28T01:45:03;102014.84;;;-3.56;100.00
5814;BME280;2933;52.302;8.134;2023-02-28T01:50:10;102001.84;;;-3.67;100.00
5814;BME280;2933;52.302;8.134;2023-02-28T01:55:15;102003.59;;;-3.64;100.00
5814;BME280;2933;52.302;8.134;2023-02-28T02:00:20;102006.91;;;-3.68;100.00
5814;BME280;2933;52.302;8.134;2023-02-28T02:05:27;102000.88;;;-3.72;100.00
5814;BME280;2933;52.302;8.134;2023-02-28T02:10:34;101994.84;;;-3.76;100.00
5814;BME280;2933;52.302;8.134;2023-02-28T02:15:40;101999.09;;;-3.76;100.00
5814;BME280;2933;52.302;8.134;2023-02-28T02:21:07;101996.88;;;-3.61;100.00
5814;BME280;2933;52.302;8.134;2023-02-28T02:26:28;101995.84;;;-3.70;100.00
5814;BME280;2933;52.302;8.134;2023-02-28T02:31:50;101997.34;;;-3.79;100.00
5814;BME280;2933;52.302;8.134;2023-02-28T02:37:04;101966.75;;;-4.14;100.00
5814;BME280;2933;52.302;8.134;2023-02-28T02:42:14;102007.91;;;-4.00;100.00
5814;BME280;2933;52.302;8.134;2023-02-28T02:47:20;101992.66;;;-4.33;100.00
5814;BME280;2933;52.302;8.134;2023-02-28T02:52:31;101970.38;;;-4.39;100.00
5814;BME280;2933;52.302;8.134;2023-02-28T02:57:38;101988.59;;;-4.25;100.00
5814;BME280;2933;52.302;8.134;2023-02-28T03:02:43;101993.75;;;-4.24;100.00
5814;BME280;2933;52.302;8.134;2023-02-28T03:07:47;102010.78;;;-4.23;100.00
5814;BME280;2933;52.302;8.134;2023-02-28T03:12:56;102010.06;;;-4.17;100.00
5814;BME280;2933;52.302;8.134;2023-02-28T03:18:04;102009.63;;;-4.34;100.00
5814;BME280;2933;52.302;8.134;2023-02-28T03:23:16;102013.69;;;-4.42;100.00
5814;BME280;2933;52.302;8.134;2023-02-28T03:28:25;102011.19;;;-4.39;100.00
5814;BME280;2933;52.302;8.134;2023-02-28T03:33:31;102011.44;;;-4.30;100.00
5814;BME280;2933;52.302;8.134;2023-02-28T03:38:40;102018.13;;;-4.35;100.00
5814;BME280;2933;52.302;8.134;2023-02-28T03:43:49;102021.41;;;-4.39;100.00
5814;BME280;2933;52.302;8.134;2023-02-28T03:48:56;102017.91;;;-4.43;100.00
5814;BME280;2933;52.302;8.134;2023-02-28T03:54:05;102008.47;;;-4.47;100.00
5814;BME280;2933;52.302;8.134;2023-02-28T03:59:13;101997.03;;;-4.61;100.00
5814;BME280;2933;52.302;8.134;2023-02-28T04:04:16;102005.44;;;-4.65;100.00
5814;BME280;2933;52.302;8.134;2023-02-28T04:09:20;102007.81;;;-4.72;100.00
5814;BME280;2933;52.302;8.134;2023-02-28T04:14:22;101994.72;;;-4.84;100.00
5814;BME280;2933;52.302;8.134;2023-02-28T04:19:23;101981.81;;;-4.90;100.00
5814;BME280;2933;52.302;8.134;2023-02-28T04:24:27;102019.00;;;-4.98;100.00
5814;BME280;2933;52.302;8.134;2023-02-28T04:29:30;102020.72;;;-4.97;100.00
5814;BME280;2933;52.302;8.134;2023-02-28T04:34:32;102013.06;;;-4.97;100.00
5814;BME280;2933;52.302;8.134;2023-02-28T04:39:36;101984.50;;;-5.16;100.00
5814;BME280;2933;52.302;8.134;2023-02-28T04:44:38;102017.53;;;-5.21;100.00
5814;BME280;2933;52.302;8.134;2023-02-28T04:49:39;101972.78;;;-5.41;100.00
5814;BME280;2933;52.302;8.134;2023-02-28T04:54:43;102025.41;;;-5.11;100.00
5814;BME280;2933;52.302;8.134;2023-02-28T04:59:45;102019.25;;;-5.20;100.00
5814;BME280;2933;52.302;8.134;2023-02-28T05:04:46;102023.78;;;-5.09;100.00
5814;BME280;2933;52.302;8.134;2023-02-28T05:09:49;101993.19;;;-5.40;100.00
5814;BME280;2933;52.302;8.134;2023-02-28T05:14:51;102033.97;;;-5.09;100.00
5814;BME280;2933;52.302;8.134;2023-02-28T05:19:52;102038.72;;;-5.22;100.00
5814;BME280;2933;52.302;8.134;2023-02-28T05:24:55;102042.09;;;-5.23;100.00
5814;BME280;2933;52.302;8.134;2023-02-28T05:29:57;102045.09;;;-5.07;100.00
5814;BME280;2933;52.302;8.134;2023-02-28T05:34:59;102046.69;;;-5.11;100.00
5814;BME280;2933;52.302;8.134;2023-02-28T05:40:03;102012.94;;;-5.32;100.00
5814;BME280;2933;52.302;8.134;2023-02-28T05:45:08;102042.69;;;-5.01;100.00
5814;BME280;2933;52.302;8.134;2023-02-28T05:50:10;102041.00;;;-5.02;100.00
5814;BME280;2933;52.302;8.134;2023-02-28T05:55:13;102043.03;;;-4.89;100.00
5814;BME280;2933;52.302;8.134;2023-02-28T06:00:15;102057.53;;;-4.88;100.00
5814;BME280;2933;52.302;8.134;2023-02-28T06:05:18;101994.97;;;-5.07;100.00
5814;BME280;2933;52.302;8.134;2023-02-28T06:10:21;102050.75;;;-4.87;100.00
5814;BME280;2933;52.302;8.134;2023-02-28T06:15:22;102047.22;;;-4.92;100.00
5814;BME280;2933;52.302;8.134;2023-02-28T06:20:25;102025.97;;;-5.22;100.00
5814;BME280;2933;52.302;8.134;2023-02-28T06:25:30;102051.06;;;-5.05;100.00
5814;BME280;2933;52.302;8.134;2023-02-28T06:30:32;102013.91;;;-5.27;100.00
5814;BME280;2933;52.302;8.134;2023-02-28T06:35:34;102008.22;;;-5.49;100.00
5814;BME280;2933;52.302;8.134;2023-02-28T06:40:37;102036.63;;;-5.35;100.00
5814;BME280;2933;52.302;8.134;2023-02-28T06:45:42;102065.31;;;-5.13;100.00
5814;BME280;2933;52.302;8.134;2023-02-28T06:50:43;102064.28;;;-5.19;100.00
5814;BME280;2933;52.302;8.134;2023-02-28T06:55:46;102071.81;;;-5.23;100.00
5814;BME280;2933;52.302;8.134;2023-02-28T07:00:50;102080.78;;;-5.07;100.00
5814;BME280;2933;52.302;8.134;2023-02-28T07:05:52;102079.56;;;-4.90;100.00
5814;BME280;2933;52.302;8.134;2023-02-28T07:10:58;102080.63;;;-4.81;100.00
5814;BME280;2933;52.302;8.134;2023-02-28T07:16:01;102051.63;;;-4.85;100.00
5814;BME280;2933;52.302;8.134;2023-02-28T07:21:05;102087.94;;;-4.63;100.00
5814;BME280;2933;52.302;8.134;2023-02-28T07:26:11;102094.38;;;-4.46;100.00
5814;BME280;2933;52.302;8.134;2023-02-28T07:31:15;102048.00;;;-4.63;100.00
5814;BME280;2933;52.302;8.134;2023-02-28T07:36:17;102095.66;;;-3.96;100.00
5814;BME280;2933;52.302;8.134;2023-02-28T07:41:22;102081.78;;;-3.71;100.00
5814;BME280;2933;52.302;8.134;2023-02-28T07:46:27;102072.56;;;-3.64;100.00
5814;BME280;2933;52.302;8.134;2023-02-28T07:51:35;102061.16;;;-3.42;100.00
5814;BME280;2933;52.302;8.134;2023-02-28T07:56:38;102092.72;;;-3.02;100.00
5814;BME280;2933;52.302;8.134;2023-02-28T08:01:39;102093.38;;;-2.69;100.00
5814;BME280;2933;52.302;8.134;2023-02-28T08:06:41;102101.41;;;-2.51;100.00
5814;BME280;2933;52.302;8.134;2023-02-28T08:11:44;102100.84;;;-2.34;100.00
5814;BME280;2933;52.302;8.134;2023-02-28T08:16:45;102098.75;;;-2.08;100.00
5814;BME280;2933;52.302;8.134;2023-02-28T08:21:47;102099.13;;;-1.86;100.00
5814;BME280;2933;52.302;8.134;2023-02-28T08:26:50;102100.28;;;-1.69;100.00
5814;BME280;2933;52.302;8.134;2023-02-28T08:31:52;102105.78;;;-1.44;100.00
5814;BME280;2933;52.302;8.134;2023-02-28T08:36:53;102101.75;;;-1.28;100.00
5814;BME280;2933;52.302;8.134;2023-02-28T08:41:56;102047.75;;;-1.39;100.00
5814;BME280;2933;52.302;8.134;2023-02-28T08:46:57;102107.41;;;-0.85;100.00
5814;BME280;2933;52.302;8.134;2023-02-28T08:51:59;102106.81;;;-0.65;100.00
5814;BME280;2933;52.302;8.134;2023-02-28T08:57:02;102083.91;;;-0.46;100.00
5814;BME280;2933;52.302;8.134;2023-02-28T09:02:04;102108.31;;;-0.03;100.00
5814;BME280;2933;52.302;8.134;2023-02-28T09:07:06;102099.19;;;0.30;95.07
5814;BME280;2933;52.302;8.134;2023-02-28T09:12:09;102115.75;;;0.71;83.25
5814;BME280;2933;52.302;8.134;2023-02-28T09:17:11;102109.03;;;0.95;77.54
5814;BME280;2933;52.302;8.134;2023-02-28T09:22:13;102110.00;;;1.19;76.46
5814;BME280;2933;52.302;8.134;2023-02-28T09:27:15;102083.41;;;1.20;75.27
5814;BME280;2933;52.302;8.134;2023-02-28T09:32:18;102105.00;;;1.62;75.04
5814;BME280;2933;52.302;8.134;2023-02-28T09:37:20;102113.59;;;1.69;68.15
5814;BME280;2933;52.302;8.134;2023-02-28T09:42:31;102099.84;;;1.77;67.49
5814;BME280;2933;52.302;8.134;2023-02-28T09:47:34;102107.63;;;2.10;70.35
5814;BME280;2933;52.302;8.134;2023-02-28T09:52:37;102082.72;;;2.09;63.29
5814;BME280;2933;52.302;8.134;2023-02-28T09:57:41;102115.38;;;2.42;63.62
5814;BME280;2933;52.302;8.134;2023-02-28T10:02:54;102116.22;;;2.46;58.67
5814;BME280;2933;52.302;8.134;2023-02-28T10:08:03;102121.41;;;2.41;56.27
5814;BME280;2933;52.302;8.134;2023-02-28T10:13:19;102125.66;;;2.53;56.85
5814;BME280;2933;52.302;8.134;2023-02-28T10:18:23;102129.09;;;2.79;57.44
5814;BME280;2933;52.302;8.134;2023-02-28T10:23:28;102123.09;;;2.69;56.99
5814;BME280;2933;52.302;8.134;2023-02-28T10:28:34;102128.22;;;2.70;54.10
5814;BME280;2933;52.302;8.134;2023-02-28T10:33:35;102113.66;;;2.54;55.17
5814;BME280;2933;52.302;8.134;2023-02-28T10:38:38;102120.50;;;2.66;53.84
5814;BME280;2933;52.302;8.134;2023-02-28T10:43:42;102101.56;;;2.78;54.58
5814;BME280;2933;52.302;8.134;2023-02-28T10:48:48;102101.53;;;2.85;54.92
5814;BME280;2933;52.302;8.134;2023-02-28T10:53:52;102112.69;;;2.97;54.70
5814;BME280;2933;52.302;8.134;2023-02-28T10:58:57;102105.78;;;2.96;53.86
5814;BME280;2933;52.302;8.134;2023-02-28T11:03:59;102092.88;;;3.00;53.71
5814;BME280;2933;52.302;8.134;2023-02-28T11:09:03;102110.03;;;3.15;53.20
5814;BME280;2933;52.302;8.134;2023-02-28T11:14:18;102109.13;;;3.27;55.18
5814;BME280;2933;52.302;8.134;2023-02-28T11:19:25;102105.72;;;3.17;54.96
5814;BME280;2933;52.302;8.134;2023-02-28T11:24:30;102094.47;;;3.37;55.55
5814;BME280;2933;52.302;8.134;2023-02-28T11:29:46;102096.94;;;3.54;56.25
5814;BME280;2933;52.302;8.134;2023-02-28T11:35:01;102102.19;;;3.43;53.37
5814;BME280;2933;52.302;8.134;2023-02-28T11:40:08;102107.38;;;3.32;53.24
5814;BME280;2933;52.302;8.134;2023-02-28T11:45:44;102091.06;;;3.27;54.64
5814;BME280;2933;52.302;8.134;2023-02-28T11:50:55;102092.63;;;3.53;55.95
5814;BME280;2933;52.302;8.134;2023-02-28T11:56:03;102064.28;;;3.44;54.38
5814;BME280;2933;52.302;8.134;2023-02-28T12:01:40;102085.75;;;3.55;52.34
5814;BME280;2933;52.302;8.134;2023-02-28T12:06:50;102074.41;;;3.79;54.79
5814;BME280;2933;52.302;8.134;2023-02-28T12:11:56;102073.50;;;3.83;54.97
5814;BME280;2933;52.302;8.134;2023-02-28T12:17:15;102065.75;;;3.82;50.91
5814;BME280;2933;52.302;8.134;2023-02-28T12:22:28;102043.34;;;3.82;52.33
5814;BME280;2933;52.302;8.134;2023-02-28T12:27:34;102009.81;;;3.75;52.67
5814;BME280;2933;52.302;8.134;2023-02-28T12:32:41;102019.09;;;3.96;54.74
5814;BME280;2933;52.302;8.134;2023-02-28T12:37:47;102027.38;;;4.33;56.14
5814;BME280;2933;52.302;8.134;2023-02-28T12:42:54;102027.72;;;3.96;56.14
5814;BME280;2933;52.302;8.134;2023-02-28T12:48:01;101984.66;;;3.92;56.02
5814;BME280;2933;52.302;8.134;2023-02-28T12:53:07;102014.69;;;4.04;56.10
5814;BME280;2933;52.302;8.134;2023-02-28T12:58:14;101951.97;;;3.88;56.14
5814;BME280;2933;52.302;8.134;2023-02-28T13:03:41;101989.72;;;4.04;56.01
5814;BME280;2933;52.302;8.134;2023-02-28T13:14:16;101988.91;;;3.98;55.50
5814;BME280;2933;52.302;8.134;2023-02-28T13:19:22;101991.41;;;4.09;56.38
5814;BME280;2933;52.302;8.134;2023-02-28T13:24:41;101996.47;;;4.19;55.63
5814;BME280;2933;52.302;8.134;2023-02-28T13:29:43;101990.44;;;4.17;55.44
5814;BME280;2933;52.302;8.134;2023-02-28T13:40:39;101990.50;;;4.14;56.11
5814;BME280;2933;52.302;8.134;2023-02-28T13:46:08;101999.81;;;4.29;56.69
5814;BME280;2933;52.302;8.134;2023-02-28T13:51:40;101990.34;;;4.25;55.66
5814;BME280;2933;52.302;8.134;2023-02-28T13:56:48;101994.59;;;4.32;55.93
5814;BME280;2933;52.302;8.134;2023-02-28T14:02:22;101982.59;;;4.27;54.83
5814;BME280;2933;52.302;8.134;2023-02-28T14:07:33;101984.25;;;4.32;56.28
5814;BME280;2933;52.302;8.134;2023-02-28T14:13:00;101970.44;;;4.33;54.96
5814;BME280;2933;52.302;8.134;2023-02-28T14:18:05;101961.97;;;4.20;54.79
5814;BME280;2933;52.302;8.134;2023-02-28T14:23:18;101969.81;;;4.11;55.36
5814;BME280;2933;52.302;8.134;2023-02-28T14:28:40;101966.09;;;4.40;59.83
5814;BME280;2933;52.302;8.134;2023-02-28T14:33:58;101950.81;;;4.14;55.80
5814;BME280;2933;52.302;8.134;2023-02-28T14:44:57;101951.97;;;3.88;57.29
5814;BME280;2933;52.302;8.134;2023-02-28T14:49:59;101946.00;;;3.78;56.60
5814;BME280;2933;52.302;8.134;2023-02-28T14:55:04;101948.41;;;3.95;57.92
5814;BME280;2933;52.302;8.134;2023-02-28T15:00:14;101945.09;;;3.82;57.33
5814;BME280;2933;52.302;8.134;2023-02-28T15:05:26;101948.59;;;3.75;57.96
5814;BME280;2933;52.302;8.134;2023-02-28T15:10:27;101913.53;;;3.46;58.98
5814;BME280;2933;52.302;8.134;2023-02-28T15:15:41;101952.28;;;3.51;59.27
5814;BME280;2933;52.302;8.134;2023-02-28T15:20:44;101945.34;;;3.54;60.66
5814;BME280;2933;52.302;8.134;2023-02-28T15:25:46;101956.56;;;3.50;60.88
5814;BME280;2933;52.302;8.134;2023-02-28T15:30:58;101965.16;;;3.52;62.42
5814;BME280;2933;52.302;8.134;2023-02-28T15:36:05;101964.31;;;3.52;61.61
5814;BME280;2933;52.302;8.134;2023-02-28T15:41:22;101961.81;;;3.38;60.63
5814;BME280;2933;52.302;8.134;2023-02-28T15:46:26;101961.81;;;3.38;61.72
5814;BME280;2933;52.302;8.134;2023-02-28T15:51:32;101965.31;;;3.34;62.41
5814;BME280;2933;52.302;8.134;2023-02-28T15:56:38;101966.16;;;3.33;62.55
5814;BME280;2933;52.302;8.134;2023-02-28T16:01:41;101967.06;;;3.29;62.74
5814;BME280;2933;52.302;8.134;2023-02-28T16:06:43;101972.28;;;3.19;62.11
5814;BME280;2933;52.302;8.134;2023-02-28T16:11:47;101973.16;;;3.17;62.16
5814;BME280;2933;52.302;8.134;2023-02-28T16:16:53;101973.16;;;3.17;62.97
5814;BME280;2933;52.302;8.134;2023-02-28T16:21:55;101967.19;;;3.05;60.65
5814;BME280;2933;52.302;8.134;2023-02-28T16:26:56;101958.69;;;2.93;60.87
5814;BME280;2933;52.302;8.134;2023-02-28T16:32:01;101967.25;;;2.93;61.95
5814;BME280;2933;52.302;8.134;2023-02-28T16:37:04;101935.56;;;2.69;62.00
5814;BME280;2933;52.302;8.134;2023-02-28T16:42:07;101967.41;;;2.70;61.40
5814;BME280;2933;52.302;8.134;2023-02-28T16:47:10;101964.00;;;2.51;62.35
5814;BME280;2933;52.302;8.134;2023-02-28T16:52:13;101977.75;;;2.64;62.50
5814;BME280;2933;52.302;8.134;2023-02-28T16:57:19;101970.06;;;2.45;63.24
5814;BME280;2933;52.302;8.134;2023-02-28T17:02:23;101969.19;;;2.38;65.74
5814;BME280;2933;52.302;8.134;2023-02-28T17:07:24;101973.50;;;2.42;68.60
5814;BME280;2933;52.302;8.134;2023-02-28T17:12:26;101917.78;;;1.90;68.67
5814;BME280;2933;52.302;8.134;2023-02-28T17:17:29;101967.56;;;2.08;68.97
5814;BME280;2933;52.302;8.134;2023-02-28T17:22:31;101969.28;;;2.01;73.70
5814;BME280;2933;52.302;8.134;2023-02-28T17:27:32;101982.19;;;1.75;70.27
5814;BME280;2933;52.302;8.134;2023-02-28T17:32:35;101983.94;;;1.73;73.27
5814;BME280;2933;52.302;8.134;2023-02-28T17:37:37;101967.56;;;1.34;75.25
5814;BME280;2933;52.302;8.134;2023-02-28T17:42:39;101992.47;;;1.41;76.06
5814;BME280;2933;52.302;8.134;2023-02-28T17:47:43;102001.00;;;1.13;76.96
5814;BME280;2933;52.302;8.134;2023-02-28T17:52:47;101994.91;;;0.85;78.46
5814;BME280;2933;52.302;8.134;2023-02-28T17:57:48;102000.72;;;0.45;80.46
5814;BME280;2933;52.302;8.134;2023-02-28T18:02:51;102006.72;;;0.44;81.01
5814;BME280;2933;52.302;8.134;2023-02-28T18:07:54;101981.63;;;0.06;82.93
5814;BME280;2933;52.302;8.134;2023-02-28T18:12:56;102003.94;;;0.10;83.81
5814;BME280;2933;52.302;8.134;2023-02-28T18:17:59;102010.75;;;0.08;84.37
5814;BME280;2933;52.302;8.134;2023-02-28T18:23:01;101999.44;;;-0.17;86.71
5814;BME280;2933;52.302;8.134;2023-02-28T18:28:03;101982.00;;;-0.54;87.33
5814;BME280;2933;52.302;8.134;2023-02-28T18:33:06;102000.81;;;-0.56;89.11
5814;BME280;2933;52.302;8.134;2023-02-28T18:38:10;102005.72;;;-0.78;91.51
5814;BME280;2933;52.302;8.134;2023-02-28T18:43:13;102001.31;;;-0.91;92.13
5814;BME280;2933;52.302;8.134;2023-02-28T18:48:17;102001.31;;;-0.91;92.72
5814;BME280;2933;52.302;8.134;2023-02-28T18:53:19;101965.31;;;-0.99;92.43
5814;BME280;2933;52.302;8.134;2023-02-28T18:58:21;101983.50;;;-0.76;93.05
5814;BME280;2933;52.302;8.134;2023-02-28T19:03:24;102004.91;;;-0.74;94.81
5814;BME280;2933;52.302;8.134;2023-02-28T19:08:25;101993.53;;;-0.96;95.05
5814;BME280;2933;52.302;8.134;2023-02-28T19:13:27;101998.50;;;-1.13;96.40
5814;BME280;2933;52.302;8.134;2023-02-28T19:18:31;101985.63;;;-1.18;97.43
5814;BME280;2933;52.302;8.134;2023-02-28T19:23:33;101989.69;;;-1.35;99.20
5814;BME280;2933;52.302;8.134;2023-02-28T19:28:35;101988.53;;;-1.59;100.00
5814;BME280;2933;52.302;8.134;2023-02-28T19:33:39;101992.84;;;-1.55;100.00
5814;BME280;2933;52.302;8.134;2023-02-28T19:38:41;101984.00;;;-1.75;100.00
5814;BME280;2933;52.302;8.134;2023-02-28T19:43:44;101997.72;;;-1.72;100.00
5814;BME280;2933;52.302;8.134;2023-02-28T19:48:46;102006.50;;;-1.56;100.00
5814;BME280;2933;52.302;8.134;2023-02-28T19:53:48;102009.72;;;-1.69;100.00
5814;BME280;2933;52.302;8.134;2023-02-28T19:58:50;102007.00;;;-1.80;100.00
5814;BME280;2933;52.302;8.134;2023-02-28T20:03:53;102014.81;;;-1.72;100.00
5814;BME280;2933;52.302;8.134;2023-02-28T20:08:54;102004.47;;;-1.77;100.00
5814;BME280;2933;52.302;8.134;2023-02-28T20:13:56;101975.91;;;-2.03;100.00
5814;BME280;2933;52.302;8.134;2023-02-28T20:18:59;102008.66;;;-1.84;100.00
5814;BME280;2933;52.302;8.134;2023-02-28T20:24:01;102023.19;;;-1.83;100.00
5814;BME280;2933;52.302;8.134;2023-02-28T20:29:03;102010.31;;;-1.86;100.00
5814;BME280;2933;52.302;8.134;2023-02-28T20:34:07;101998.44;;;-1.81;100.00
5814;BME280;2933;52.302;8.134;2023-02-28T20:39:09;102012.69;;;-2.00;100.00
5814;BME280;2933;52.302;8.134;2023-02-28T20:44:11;102016.78;;;-2.11;100.00
5814;BME280;2933;52.302;8.134;2023-02-28T20:49:14;102001.22;;;-2.22;100.00
5814;BME280;2933;52.302;8.134;2023-02-28T20:54:16;102027.78;;;-2.15;100.00
5814;BME280;2933;52.302;8.134;2023-02-28T20:59:18;102017.34;;;-2.28;100.00
5814;BME280;2933;52.302;8.134;2023-02-28T21:04:22;102029.56;;;-2.13;100.00
5814;BME280;2933;52.302;8.134;2023-02-28T21:09:24;102032.19;;;-2.06;100.00
5814;BME280;2933;52.302;8.134;2023-02-28T21:14:26;102017.19;;;-2.37;100.00
5814;BME280;2933;52.302;8.134;2023-02-28T21:19:29;102034.25;;;-2.37;100.00
5814;BME280;2933;52.302;8.134;2023-02-28T21:24:32;102041.13;;;-2.35;100.00
5814;BME280;2933;52.302;8.134;2023-02-28T21:29:33;102033.38;;;-2.84;100.00
5814;BME280;2933;52.302;8.134;2023-02-28T21:34:36;101996.50;;;-2.97;100.00
5814;BME280;2933;52.302;8.134;2023-02-28T21:39:38;102032.91;;;-2.64;100.00
5814;BME280;2933;52.302;8.134;2023-02-28T21:44:39;102000.25;;;-2.78;100.00
5814;BME280;2933;52.302;8.134;2023-02-28T21:49:42;102018.13;;;-2.79;100.00
5814;BME280;2933;52.302;8.134;2023-02-28T21:54:44;102031.81;;;-2.77;100.00
5814;BME280;2933;52.302;8.134;2023-02-28T21:59:45;102026.75;;;-2.74;100.00
5814;BME280;2933;52.302;8.134;2023-02-28T22:04:49;102035.44;;;-2.66;100.00
5814;BME280;2933;52.302;8.134;2023-02-28T22:09:50;102010.84;;;-3.03;100.00
5814;BME280;2933;52.302;8.134;2023-02-28T22:14:52;102041.75;;;-2.91;100.00
5814;BME280;2933;52.302;8.134;2023-02-28T22:19:55;102005.69;;;-3.05;100.00
5814;BME280;2933;52.302;8.134;2023-02-28T22:24:56;102036.38;;;-3.05;100.00
5814;BME280;2933;52.302;8.134;2023-02-28T22:29:58;102028.66;;;-3.08;100.00
5814;BME280;2933;52.302;8.134;2023-02-28T22:35:01;102034.47;;;-3.15;100.00
5814;BME280;2933;52.302;8.134;2023-02-28T22:40:03;102015.34;;;-3.34;100.00
5814;BME280;2933;52.302;8.134;2023-02-28T22:45:06;102035.31;;;-3.15;100.00
5814;BME280;2933;52.302;8.134;2023-02-28T22:50:10;102011.84;;;-3.38;100.00
5814;BME280;2933;52.302;8.134;2023-02-28T22:55:12;102033.38;;;-3.28;100.00
5814;BME280;2933;52.302;8.134;2023-02-28T23:00:14;102035.78;;;-3.34;100.00
5814;BME280;2933;52.302;8.134;2023-02-28T23:05:17;102036.66;;;-3.32;100.00
5814;BME280;2933;52.302;8.134;2023-02-28T23:10:19;102037.50;;;-3.33;100.00
5814;BME280;2933;52.302;8.134;2023-02-28T23:15:21;102040.72;;;-3.42;100.00
5814;BME280;2933;52.302;8.134;2023-02-28T23:20:24;102043.94;;;-3.51;100.00
5814;BME280;2933;52.302;8.134;2023-02-28T23:25:26;102008.22;;;-3.86;100.00
5814;BME280;2933;52.302;8.134;2023-02-28T23:30:28;102033.50;;;-3.62;100.00
5814;BME280;2933;52.302;8.134;2023-02-28T23:35:31;101998.63;;;-3.98;100.00
5814;BME280;2933;52.302;8.134;2023-02-28T23:40:33;102020.09;;;-3.88;100.00
5814;BME280;2933;52.302;8.134;2023-02-28T23:45:35;102024.06;;;-4.01;100.00
5814;BME280;2933;52.302;8.134;2023-02-28T23:50:38;102021.06;;;-4.19;100.00
5814;BME280;2933;52.302;8.134;2023-02-28T23:55:44;102013.06;;;-3.97;100.00
